sensor_id;sensor_type;location;lat;lon;timestamp;P1;durP1;ratioP1;P2;durP2;ratioP2
81960;SDS011;71462;50.650;6.888;2024-03-08T00:00:31;25.00;;;13.75;;
81960;SDS011;71462;50.650;6.888;2024-03-08T00:02:59;25.10;;;13.05;;
81960;SDS011;71462;50.650;6.888;2024-03-08T00:05:29;27.10;;;13.77;;
81960;SDS011;71462;50.650;6.888;2024-03-08T00:08:01;23.25;;;10.10;;
81960;SDS011;71462;50.650;6.888;2024-03-08T00:10:29;23.30;;;12.15;;
81960;SDS011;71462;50.650;6.888;2024-03-08T00:12:57;24.25;;;12.38;;
81960;SDS011;71462;50.650;6.888;2024-03-08T00:15:25;23.38;;;13.13;;
81960;SDS011;71462;50.650;6.888;2024-03-08T00:17:55;25.42;;;11.70;;
81960;SDS011;71462;50.650;6.888;2024-03-08T00:20:23;25.15;;;13.50;;
81960;SDS011;71462;50.650;6.888;2024-03-08T00:22:51;26.83;;;10.65;;
81960;SDS011;71462;50.650;6.888;2024-03-08T00:25:20;24.65;;;12.90;;
81960;SDS011;71462;50.650;6.888;2024-03-08T00:27:49;30.52;;;15.05;;
81960;SDS011;71462;50.650;6.888;2024-03-08T00:30:17;22.58;;;10.82;;
81960;SDS011;71462;50.650;6.888;2024-03-08T00:32:45;29.67;;;12.88;;
81960;SDS011;71462;50.650;6.888;2024-03-08T00:35:13;28.85;;;13.73;;
81960;SDS011;71462;50.650;6.888;2024-03-08T00:37:41;25.75;;;13.20;;
81960;SDS011;71462;50.650;6.888;2024-03-08T00:40:09;21.83;;;11.25;;
81960;SDS011;71462;50.650;6.888;2024-03-08T00:42:39;25.00;;;13.40;;
81960;SDS011;71462;50.650;6.888;2024-03-08T00:45:08;26.52;;;13.48;;
81960;SDS011;71462;50.650;6.888;2024-03-08T00:47:37;18.48;;;10.45;;
81960;SDS011;71462;50.650;6.888;2024-03-08T00:50:06;22.77;;;9.80;;
81960;SDS011;71462;50.650;6.888;2024-03-08T00:52:35;27.92;;;13.20;;
81960;SDS011;71462;50.650;6.888;2024-03-08T00:55:03;27.92;;;14.25;;
81960;SDS011;71462;50.650;6.888;2024-03-08T00:57:31;23.38;;;12.57;;
81960;SDS011;71462;50.650;6.888;2024-03-08T01:00:02;25.85;;;13.32;;
81960;SDS011;71462;50.650;6.888;2024-03-08T01:02:32;24.08;;;13.30;;
81960;SDS011;71462;50.650;6.888;2024-03-08T01:05:01;26.85;;;14.02;;
81960;SDS011;71462;50.650;6.888;2024-03-08T01:07:30;26.95;;;13.23;;
81960;SDS011;71462;50.650;6.888;2024-03-08T01:09:58;27.17;;;12.73;;
81960;SDS011;71462;50.650;6.888;2024-03-08T01:12:26;29.15;;;13.93;;
81960;SDS011;71462;50.650;6.888;2024-03-08T01:14:54;28.92;;;13.45;;
81960;SDS011;71462;50.650;6.888;2024-03-08T01:17:24;27.13;;;13.70;;
81960;SDS011;71462;50.650;6.888;2024-03-08T01:19:53;22.17;;;11.23;;
81960;SDS011;71462;50.650;6.888;2024-03-08T01:22:21;31.52;;;14.35;;
81960;SDS011;71462;50.650;6.888;2024-03-08T01:24:49;25.70;;;12.43;;
81960;SDS011;71462;50.650;6.888;2024-03-08T01:27:16;28.58;;;14.52;;
81960;SDS011;71462;50.650;6.888;2024-03-08T01:29:44;26.65;;;12.35;;
81960;SDS011;71462;50.650;6.888;2024-03-08T01:32:12;23.80;;;12.85;;
81960;SDS011;71462;50.650;6.888;2024-03-08T01:34:42;25.38;;;13.10;;
81960;SDS011;71462;50.650;6.888;2024-03-08T01:37:11;27.10;;;13.15;;
81960;SDS011;71462;50.650;6.888;2024-03-08T01:39:40;27.60;;;13.20;;
81960;SDS011;71462;50.650;6.888;2024-03-08T01:42:08;32.05;;;13.00;;
81960;SDS011;71462;50.650;6.888;2024-03-08T01:44:38;25.55;;;11.93;;
81960;SDS011;71462;50.650;6.888;2024-03-08T01:47:06;27.08;;;12.20;;
81960;SDS011;71462;50.650;6.888;2024-03-08T01:49:34;24.48;;;12.60;;
81960;SDS011;71462;50.650;6.888;2024-03-08T01:52:04;27.08;;;13.02;;
81960;SDS011;71462;50.650;6.888;2024-03-08T01:54:33;25.33;;;12.73;;
81960;SDS011;71462;50.650;6.888;2024-03-08T01:57:02;22.73;;;11.10;;
81960;SDS011;71462;50.650;6.888;2024-03-08T01:59:30;24.02;;;12.45;;
81960;SDS011;71462;50.650;6.888;2024-03-08T02:02:01;23.95;;;12.27;;
81960;SDS011;71462;50.650;6.888;2024-03-08T02:04:29;26.08;;;13.15;;
81960;SDS011;71462;50.650;6.888;2024-03-08T02:06:58;25.65;;;13.55;;
81960;SDS011;71462;50.650;6.888;2024-03-08T02:09:27;22.90;;;12.23;;
81960;SDS011;71462;50.650;6.888;2024-03-08T02:11:55;25.33;;;12.07;;
81960;SDS011;71462;50.650;6.888;2024-03-08T02:14:24;27.55;;;12.73;;
81960;SDS011;71462;50.650;6.888;2024-03-08T02:16:52;28.67;;;12.75;;
81960;SDS011;71462;50.650;6.888;2024-03-08T02:19:20;27.23;;;11.57;;
81960;SDS011;71462;50.650;6.888;2024-03-08T02:21:49;21.45;;;11.50;;
81960;SDS011;71462;50.650;6.888;2024-03-08T02:24:17;24.67;;;12.68;;
81960;SDS011;71462;50.650;6.888;2024-03-08T02:26:53;24.08;;;12.63;;
81960;SDS011;71462;50.650;6.888;2024-03-08T02:29:21;24.23;;;12.63;;
81960;SDS011;71462;50.650;6.888;2024-03-08T02:31:50;28.75;;;13.38;;
81960;SDS011;71462;50.650;6.888;2024-03-08T02:34:19;30.13;;;14.02;;
81960;SDS011;71462;50.650;6.888;2024-03-08T02:36:47;26.70;;;13.07;;
81960;SDS011;71462;50.650;6.888;2024-03-08T02:39:16;27.75;;;13.02;;
81960;SDS011;71462;50.650;6.888;2024-03-08T02:41:46;25.80;;;12.40;;
81960;SDS011;71462;50.650;6.888;2024-03-08T02:44:13;25.23;;;12.73;;
81960;SDS011;71462;50.650;6.888;2024-03-08T02:46:44;26.40;;;13.32;;
81960;SDS011;71462;50.650;6.888;2024-03-08T02:49:11;30.23;;;13.07;;
81960;SDS011;71462;50.650;6.888;2024-03-08T02:51:39;23.27;;;11.95;;
81960;SDS011;71462;50.650;6.888;2024-03-08T02:54:07;25.15;;;12.77;;
81960;SDS011;71462;50.650;6.888;2024-03-08T02:56:38;25.05;;;12.50;;
81960;SDS011;71462;50.650;6.888;2024-03-08T02:59:05;22.17;;;12.45;;
81960;SDS011;71462;50.650;6.888;2024-03-08T03:01:35;25.92;;;12.52;;
81960;SDS011;71462;50.650;6.888;2024-03-08T03:04:02;25.27;;;14.02;;
81960;SDS011;71462;50.650;6.888;2024-03-08T03:06:30;25.95;;;12.68;;
81960;SDS011;71462;50.650;6.888;2024-03-08T03:09:00;23.67;;;12.35;;
81960;SDS011;71462;50.650;6.888;2024-03-08T03:11:28;26.50;;;13.93;;
81960;SDS011;71462;50.650;6.888;2024-03-08T03:13:57;23.27;;;12.70;;
81960;SDS011;71462;50.650;6.888;2024-03-08T03:16:25;25.63;;;13.00;;
81960;SDS011;71462;50.650;6.888;2024-03-08T03:18:53;26.02;;;12.02;;
81960;SDS011;71462;50.650;6.888;2024-03-08T03:21:23;25.38;;;13.13;;
81960;SDS011;71462;50.650;6.888;2024-03-08T03:23:51;26.70;;;12.90;;
81960;SDS011;71462;50.650;6.888;2024-03-08T03:26:19;24.17;;;13.20;;
81960;SDS011;71462;50.650;6.888;2024-03-08T03:28:48;24.60;;;12.60;;
81960;SDS011;71462;50.650;6.888;2024-03-08T03:31:17;25.15;;;12.70;;
81960;SDS011;71462;50.650;6.888;2024-03-08T03:33:45;22.65;;;12.40;;
81960;SDS011;71462;50.650;6.888;2024-03-08T03:36:13;24.80;;;13.48;;
81960;SDS011;71462;50.650;6.888;2024-03-08T03:38:42;25.45;;;12.82;;
81960;SDS011;71462;50.650;6.888;2024-03-08T03:41:10;26.55;;;12.48;;
81960;SDS011;71462;50.650;6.888;2024-03-08T03:43:40;28.73;;;12.68;;
81960;SDS011;71462;50.650;6.888;2024-03-08T03:46:08;27.58;;;13.00;;
81960;SDS011;71462;50.650;6.888;2024-03-08T03:48:38;23.45;;;11.57;;
81960;SDS011;71462;50.650;6.888;2024-03-08T03:51:09;24.30;;;11.43;;
81960;SDS011;71462;50.650;6.888;2024-03-08T03:53:37;26.90;;;13.85;;
81960;SDS011;71462;50.650;6.888;2024-03-08T03:56:05;25.38;;;13.65;;
81960;SDS011;71462;50.650;6.888;2024-03-08T03:58:33;27.08;;;12.85;;
81960;SDS011;71462;50.650;6.888;2024-03-08T04:01:01;25.10;;;12.65;;
81960;SDS011;71462;50.650;6.888;2024-03-08T04:03:31;27.77;;;13.27;;
81960;SDS011;71462;50.650;6.888;2024-03-08T04:06:01;24.80;;;12.77;;
81960;SDS011;71462;50.650;6.888;2024-03-08T04:08:29;28.58;;;14.65;;
81960;SDS011;71462;50.650;6.888;2024-03-08T04:10:57;25.35;;;13.57;;
81960;SDS011;71462;50.650;6.888;2024-03-08T04:13:25;25.17;;;12.20;;
81960;SDS011;71462;50.650;6.888;2024-03-08T04:15:53;25.92;;;13.48;;
81960;SDS011;71462;50.650;6.888;2024-03-08T04:18:21;26.05;;;13.05;;
81960;SDS011;71462;50.650;6.888;2024-03-08T04:20:49;24.75;;;12.65;;
81960;SDS011;71462;50.650;6.888;2024-03-08T04:23:18;30.65;;;13.88;;
81960;SDS011;71462;50.650;6.888;2024-03-08T04:25:46;24.80;;;13.00;;
81960;SDS011;71462;50.650;6.888;2024-03-08T04:28:14;25.27;;;12.50;;
81960;SDS011;71462;50.650;6.888;2024-03-08T04:30:43;23.83;;;12.85;;
81960;SDS011;71462;50.650;6.888;2024-03-08T04:33:12;26.77;;;13.35;;
81960;SDS011;71462;50.650;6.888;2024-03-08T04:35:43;23.98;;;12.30;;
81960;SDS011;71462;50.650;6.888;2024-03-08T04:38:12;25.73;;;12.82;;
81960;SDS011;71462;50.650;6.888;2024-03-08T04:40:41;24.30;;;12.77;;
81960;SDS011;71462;50.650;6.888;2024-03-08T04:43:09;25.33;;;13.00;;
81960;SDS011;71462;50.650;6.888;2024-03-08T04:45:37;25.40;;;12.90;;
81960;SDS011;71462;50.650;6.888;2024-03-08T04:48:05;27.67;;;12.55;;
81960;SDS011;71462;50.650;6.888;2024-03-08T04:50:34;24.75;;;11.45;;
81960;SDS011;71462;50.650;6.888;2024-03-08T04:53:02;27.48;;;10.60;;
81960;SDS011;71462;50.650;6.888;2024-03-08T04:55:30;18.00;;;8.35;;
81960;SDS011;71462;50.650;6.888;2024-03-08T04:57:59;21.40;;;9.90;;
81960;SDS011;71462;50.650;6.888;2024-03-08T05:00:27;23.38;;;9.98;;
81960;SDS011;71462;50.650;6.888;2024-03-08T05:02:55;26.55;;;12.57;;
81960;SDS011;71462;50.650;6.888;2024-03-08T05:05:23;30.20;;;11.50;;
81960;SDS011;71462;50.650;6.888;2024-03-08T05:07:51;25.15;;;10.18;;
81960;SDS011;71462;50.650;6.888;2024-03-08T05:10:19;21.20;;;8.57;;
81960;SDS011;71462;50.650;6.888;2024-03-08T05:12:48;22.20;;;9.65;;
81960;SDS011;71462;50.650;6.888;2024-03-08T05:15:17;24.77;;;10.80;;
81960;SDS011;71462;50.650;6.888;2024-03-08T05:17:46;18.42;;;9.32;;
81960;SDS011;71462;50.650;6.888;2024-03-08T05:20:14;25.92;;;11.95;;
81960;SDS011;71462;50.650;6.888;2024-03-08T05:22:43;24.73;;;11.68;;
81960;SDS011;71462;50.650;6.888;2024-03-08T05:25:11;30.50;;;14.05;;
81960;SDS011;71462;50.650;6.888;2024-03-08T05:27:40;27.98;;;13.85;;
81960;SDS011;71462;50.650;6.888;2024-03-08T05:30:08;30.90;;;14.38;;
81960;SDS011;71462;50.650;6.888;2024-03-08T05:32:43;33.35;;;14.65;;
81960;SDS011;71462;50.650;6.888;2024-03-08T05:35:12;29.95;;;14.45;;
81960;SDS011;71462;50.650;6.888;2024-03-08T05:37:42;33.70;;;14.82;;
81960;SDS011;71462;50.650;6.888;2024-03-08T05:40:10;29.33;;;14.13;;
81960;SDS011;71462;50.650;6.888;2024-03-08T05:42:43;29.15;;;13.63;;
81960;SDS011;71462;50.650;6.888;2024-03-08T05:45:11;29.70;;;13.43;;
81960;SDS011;71462;50.650;6.888;2024-03-08T05:47:40;27.55;;;12.70;;
81960;SDS011;71462;50.650;6.888;2024-03-08T05:50:11;32.72;;;13.40;;
81960;SDS011;71462;50.650;6.888;2024-03-08T05:52:39;24.42;;;11.77;;
81960;SDS011;71462;50.650;6.888;2024-03-08T05:55:07;24.77;;;10.93;;
81960;SDS011;71462;50.650;6.888;2024-03-08T05:57:36;27.13;;;12.20;;
81960;SDS011;71462;50.650;6.888;2024-03-08T06:00:06;26.88;;;11.63;;
81960;SDS011;71462;50.650;6.888;2024-03-08T06:02:37;24.80;;;9.80;;
81960;SDS011;71462;50.650;6.888;2024-03-08T06:05:10;25.65;;;11.52;;
81960;SDS011;71462;50.650;6.888;2024-03-08T06:07:39;21.40;;;10.00;;
81960;SDS011;71462;50.650;6.888;2024-03-08T06:10:10;27.17;;;11.45;;
81960;SDS011;71462;50.650;6.888;2024-03-08T06:12:39;21.98;;;10.20;;
81960;SDS011;71462;50.650;6.888;2024-03-08T06:15:11;22.60;;;10.02;;
81960;SDS011;71462;50.650;6.888;2024-03-08T06:17:51;26.27;;;10.65;;
81960;SDS011;71462;50.650;6.888;2024-03-08T06:20:32;27.65;;;13.20;;
81960;SDS011;71462;50.650;6.888;2024-03-08T06:23:00;29.15;;;13.57;;
81960;SDS011;71462;50.650;6.888;2024-03-08T06:25:28;28.80;;;14.05;;
81960;SDS011;71462;50.650;6.888;2024-03-08T06:27:58;32.65;;;15.05;;
81960;SDS011;71462;50.650;6.888;2024-03-08T06:30:26;34.85;;;15.95;;
81960;SDS011;71462;50.650;6.888;2024-03-08T06:32:54;31.55;;;15.40;;
81960;SDS011;71462;50.650;6.888;2024-03-08T06:35:22;35.78;;;16.63;;
81960;SDS011;71462;50.650;6.888;2024-03-08T06:37:52;40.92;;;17.23;;
81960;SDS011;71462;50.650;6.888;2024-03-08T06:40:22;38.78;;;16.98;;
81960;SDS011;71462;50.650;6.888;2024-03-08T06:42:50;41.97;;;18.90;;
81960;SDS011;71462;50.650;6.888;2024-03-08T06:45:19;33.60;;;15.55;;
81960;SDS011;71462;50.650;6.888;2024-03-08T06:47:50;32.83;;;15.32;;
81960;SDS011;71462;50.650;6.888;2024-03-08T06:50:22;27.30;;;12.93;;
81960;SDS011;71462;50.650;6.888;2024-03-08T06:52:52;32.15;;;15.07;;
81960;SDS011;71462;50.650;6.888;2024-03-08T06:55:20;30.50;;;13.73;;
81960;SDS011;71462;50.650;6.888;2024-03-08T06:57:48;29.38;;;13.63;;
81960;SDS011;71462;50.650;6.888;2024-03-08T07:00:16;32.55;;;13.45;;
81960;SDS011;71462;50.650;6.888;2024-03-08T07:02:47;34.00;;;14.48;;
81960;SDS011;71462;50.650;6.888;2024-03-08T07:05:16;28.58;;;13.65;;
81960;SDS011;71462;50.650;6.888;2024-03-08T07:07:44;31.38;;;14.77;;
81960;SDS011;71462;50.650;6.888;2024-03-08T07:10:16;26.83;;;12.63;;
81960;SDS011;71462;50.650;6.888;2024-03-08T07:12:43;28.23;;;13.50;;
81960;SDS011;71462;50.650;6.888;2024-03-08T07:15:12;31.80;;;13.93;;
81960;SDS011;71462;50.650;6.888;2024-03-08T07:17:41;32.22;;;15.45;;
81960;SDS011;71462;50.650;6.888;2024-03-08T07:20:11;29.50;;;15.68;;
81960;SDS011;71462;50.650;6.888;2024-03-08T07:22:40;26.17;;;12.02;;
81960;SDS011;71462;50.650;6.888;2024-03-08T07:25:13;29.13;;;13.68;;
81960;SDS011;71462;50.650;6.888;2024-03-08T07:27:56;27.85;;;13.93;;
81960;SDS011;71462;50.650;6.888;2024-03-08T07:30:26;29.05;;;13.52;;
81960;SDS011;71462;50.650;6.888;2024-03-08T07:33:18;27.60;;;13.15;;
81960;SDS011;71462;50.650;6.888;2024-03-08T07:35:50;27.92;;;13.38;;
81960;SDS011;71462;50.650;6.888;2024-03-08T07:38:18;30.65;;;14.15;;
81960;SDS011;71462;50.650;6.888;2024-03-08T07:40:49;27.70;;;13.68;;
81960;SDS011;71462;50.650;6.888;2024-03-08T07:43:18;25.95;;;12.63;;
81960;SDS011;71462;50.650;6.888;2024-03-08T07:45:46;30.40;;;14.50;;
81960;SDS011;71462;50.650;6.888;2024-03-08T07:48:14;32.35;;;14.63;;
81960;SDS011;71462;50.650;6.888;2024-03-08T07:50:45;27.83;;;12.50;;
81960;SDS011;71462;50.650;6.888;2024-03-08T07:53:12;31.50;;;13.32;;
81960;SDS011;71462;50.650;6.888;2024-03-08T07:55:41;25.75;;;13.38;;
81960;SDS011;71462;50.650;6.888;2024-03-08T07:58:11;21.25;;;10.68;;
81960;SDS011;71462;50.650;6.888;2024-03-08T08:00:41;33.90;;;15.95;;
81960;SDS011;71462;50.650;6.888;2024-03-08T08:03:09;32.40;;;17.00;;
81960;SDS011;71462;50.650;6.888;2024-03-08T08:05:40;26.25;;;13.63;;
81960;SDS011;71462;50.650;6.888;2024-03-08T08:08:08;21.80;;;10.65;;
81960;SDS011;71462;50.650;6.888;2024-03-08T08:10:37;31.77;;;14.40;;
81960;SDS011;71462;50.650;6.888;2024-03-08T08:13:05;34.92;;;17.30;;
81960;SDS011;71462;50.650;6.888;2024-03-08T08:15:35;37.05;;;17.05;;
81960;SDS011;71462;50.650;6.888;2024-03-08T08:18:04;31.83;;;15.18;;
81960;SDS011;71462;50.650;6.888;2024-03-08T08:20:33;32.05;;;13.80;;
81960;SDS011;71462;50.650;6.888;2024-03-08T08:23:01;34.67;;;17.88;;
81960;SDS011;71462;50.650;6.888;2024-03-08T08:25:29;36.10;;;17.75;;
81960;SDS011;71462;50.650;6.888;2024-03-08T08:27:57;29.67;;;14.82;;
81960;SDS011;71462;50.650;6.888;2024-03-08T08:30:25;24.65;;;11.85;;
81960;SDS011;71462;50.650;6.888;2024-03-08T08:32:52;40.05;;;21.60;;
81960;SDS011;71462;50.650;6.888;2024-03-08T08:35:22;27.35;;;12.13;;
81960;SDS011;71462;50.650;6.888;2024-03-08T08:37:50;27.15;;;13.32;;
81960;SDS011;71462;50.650;6.888;2024-03-08T08:40:18;34.75;;;19.50;;
81960;SDS011;71462;50.650;6.888;2024-03-08T08:42:45;35.63;;;19.08;;
81960;SDS011;71462;50.650;6.888;2024-03-08T08:45:15;35.53;;;18.35;;
81960;SDS011;71462;50.650;6.888;2024-03-08T08:47:50;33.63;;;17.92;;
81960;SDS011;71462;50.650;6.888;2024-03-08T08:50:18;33.13;;;18.48;;
81960;SDS011;71462;50.650;6.888;2024-03-08T08:52:50;28.17;;;12.73;;
81960;SDS011;71462;50.650;6.888;2024-03-08T08:55:20;30.15;;;14.85;;
81960;SDS011;71462;50.650;6.888;2024-03-08T08:57:51;32.88;;;15.90;;
81960;SDS011;71462;50.650;6.888;2024-03-08T09:00:19;28.15;;;13.98;;
81960;SDS011;71462;50.650;6.888;2024-03-08T09:02:48;28.02;;;15.93;;
81960;SDS011;71462;50.650;6.888;2024-03-08T09:05:17;24.40;;;12.75;;
81960;SDS011;71462;50.650;6.888;2024-03-08T09:07:45;29.13;;;17.10;;
81960;SDS011;71462;50.650;6.888;2024-03-08T09:10:14;23.48;;;11.90;;
81960;SDS011;71462;50.650;6.888;2024-03-08T09:12:43;27.58;;;14.05;;
81960;SDS011;71462;50.650;6.888;2024-03-08T09:15:11;34.75;;;18.10;;
81960;SDS011;71462;50.650;6.888;2024-03-08T09:17:40;35.65;;;20.25;;
81960;SDS011;71462;50.650;6.888;2024-03-08T09:20:10;33.08;;;18.08;;
81960;SDS011;71462;50.650;6.888;2024-03-08T09:22:43;30.65;;;16.98;;
81960;SDS011;71462;50.650;6.888;2024-03-08T09:25:15;28.60;;;15.48;;
81960;SDS011;71462;50.650;6.888;2024-03-08T09:27:52;22.92;;;11.48;;
81960;SDS011;71462;50.650;6.888;2024-03-08T09:30:21;31.02;;;15.15;;
81960;SDS011;71462;50.650;6.888;2024-03-08T09:33:05;32.17;;;17.35;;
81960;SDS011;71462;50.650;6.888;2024-03-08T09:35:37;33.13;;;18.13;;
81960;SDS011;71462;50.650;6.888;2024-03-08T09:38:08;24.10;;;11.95;;
81960;SDS011;71462;50.650;6.888;2024-03-08T09:40:52;23.27;;;12.70;;
81960;SDS011;71462;50.650;6.888;2024-03-08T09:43:24;28.58;;;13.32;;
81960;SDS011;71462;50.650;6.888;2024-03-08T09:46:12;29.83;;;13.75;;
81960;SDS011;71462;50.650;6.888;2024-03-08T09:49:01;35.50;;;17.90;;
81960;SDS011;71462;50.650;6.888;2024-03-08T09:51:33;23.02;;;13.30;;
81960;SDS011;71462;50.650;6.888;2024-03-08T09:54:10;26.92;;;13.30;;
81960;SDS011;71462;50.650;6.888;2024-03-08T09:56:51;30.75;;;17.10;;
81960;SDS011;71462;50.650;6.888;2024-03-08T09:59:23;31.25;;;17.08;;
81960;SDS011;71462;50.650;6.888;2024-03-08T10:02:23;26.90;;;15.65;;
81960;SDS011;71462;50.650;6.888;2024-03-08T10:05:15;20.63;;;10.10;;
81960;SDS011;71462;50.650;6.888;2024-03-08T10:07:50;26.77;;;13.70;;
81960;SDS011;71462;50.650;6.888;2024-03-08T10:10:37;31.17;;;15.98;;
81960;SDS011;71462;50.650;6.888;2024-03-08T10:16:38;20.23;;;9.35;;
81960;SDS011;71462;50.650;6.888;2024-03-08T10:19:36;26.50;;;14.82;;
81960;SDS011;71462;50.650;6.888;2024-03-08T10:22:07;28.88;;;14.63;;
81960;SDS011;71462;50.650;6.888;2024-03-08T10:24:44;20.60;;;10.38;;
81960;SDS011;71462;50.650;6.888;2024-03-08T10:27:12;22.75;;;12.18;;
81960;SDS011;71462;50.650;6.888;2024-03-08T10:29:44;28.52;;;14.30;;
81960;SDS011;71462;50.650;6.888;2024-03-08T10:32:14;24.35;;;13.82;;
81960;SDS011;71462;50.650;6.888;2024-03-08T10:34:42;25.95;;;13.32;;
81960;SDS011;71462;50.650;6.888;2024-03-08T10:37:12;26.15;;;12.02;;
81960;SDS011;71462;50.650;6.888;2024-03-08T10:39:45;25.65;;;14.85;;
81960;SDS011;71462;50.650;6.888;2024-03-08T10:44:59;24.95;;;12.75;;
81960;SDS011;71462;50.650;6.888;2024-03-08T10:47:34;23.60;;;13.05;;
81960;SDS011;71462;50.650;6.888;2024-03-08T10:50:10;23.05;;;11.75;;
81960;SDS011;71462;50.650;6.888;2024-03-08T10:52:47;27.23;;;14.32;;
81960;SDS011;71462;50.650;6.888;2024-03-08T10:55:17;24.55;;;11.77;;
81960;SDS011;71462;50.650;6.888;2024-03-08T10:57:46;19.73;;;10.77;;
81960;SDS011;71462;50.650;6.888;2024-03-08T11:00:16;23.15;;;13.00;;
81960;SDS011;71462;50.650;6.888;2024-03-08T11:02:53;19.92;;;10.23;;
81960;SDS011;71462;50.650;6.888;2024-03-08T11:05:31;23.83;;;13.77;;
81960;SDS011;71462;50.650;6.888;2024-03-08T11:08:01;20.98;;;11.13;;
81960;SDS011;71462;50.650;6.888;2024-03-08T11:10:30;19.70;;;10.75;;
81960;SDS011;71462;50.650;6.888;2024-03-08T11:12:58;27.05;;;14.52;;
81960;SDS011;71462;50.650;6.888;2024-03-08T11:15:29;24.80;;;14.05;;
81960;SDS011;71462;50.650;6.888;2024-03-08T11:17:58;22.75;;;12.65;;
81960;SDS011;71462;50.650;6.888;2024-03-08T11:20:27;23.40;;;13.70;;
81960;SDS011;71462;50.650;6.888;2024-03-08T11:22:55;22.15;;;11.07;;
81960;SDS011;71462;50.650;6.888;2024-03-08T11:25:32;21.77;;;12.32;;
81960;SDS011;71462;50.650;6.888;2024-03-08T11:28:10;22.70;;;11.60;;
81960;SDS011;71462;50.650;6.888;2024-03-08T11:30:45;19.38;;;11.05;;
81960;SDS011;71462;50.650;6.888;2024-03-08T11:33:14;24.45;;;13.10;;
81960;SDS011;71462;50.650;6.888;2024-03-08T11:35:44;23.30;;;13.27;;
81960;SDS011;71462;50.650;6.888;2024-03-08T11:38:13;25.02;;;13.98;;
81960;SDS011;71462;50.650;6.888;2024-03-08T11:40:42;18.98;;;10.63;;
81960;SDS011;71462;50.650;6.888;2024-03-08T11:43:15;21.45;;;12.35;;
81960;SDS011;71462;50.650;6.888;2024-03-08T11:45:47;20.58;;;11.95;;
81960;SDS011;71462;50.650;6.888;2024-03-08T11:48:19;16.60;;;8.73;;
81960;SDS011;71462;50.650;6.888;2024-03-08T11:50:47;21.95;;;11.38;;
81960;SDS011;71462;50.650;6.888;2024-03-08T11:53:27;16.35;;;8.70;;
81960;SDS011;71462;50.650;6.888;2024-03-08T11:56:05;27.40;;;15.45;;
81960;SDS011;71462;50.650;6.888;2024-03-08T12:01:25;16.20;;;9.10;;
81960;SDS011;71462;50.650;6.888;2024-03-08T12:07:01;20.33;;;11.93;;
81960;SDS011;71462;50.650;6.888;2024-03-08T12:09:35;21.73;;;12.50;;
81960;SDS011;71462;50.650;6.888;2024-03-08T12:12:03;19.20;;;11.02;;
81960;SDS011;71462;50.650;6.888;2024-03-08T12:14:34;17.92;;;11.68;;
81960;SDS011;71462;50.650;6.888;2024-03-08T12:17:04;12.82;;;8.23;;
81960;SDS011;71462;50.650;6.888;2024-03-08T12:19:32;22.67;;;11.02;;
81960;SDS011;71462;50.650;6.888;2024-03-08T12:22:07;16.95;;;9.95;;
81960;SDS011;71462;50.650;6.888;2024-03-08T12:24:36;18.42;;;10.30;;
81960;SDS011;71462;50.650;6.888;2024-03-08T12:27:17;16.27;;;9.48;;
81960;SDS011;71462;50.650;6.888;2024-03-08T12:29:45;19.02;;;10.68;;
81960;SDS011;71462;50.650;6.888;2024-03-08T12:32:24;16.98;;;11.02;;
81960;SDS011;71462;50.650;6.888;2024-03-08T12:37:22;13.25;;;7.07;;
81960;SDS011;71462;50.650;6.888;2024-03-08T12:39:50;19.30;;;10.45;;
81960;SDS011;71462;50.650;6.888;2024-03-08T12:42:18;22.35;;;11.95;;
81960;SDS011;71462;50.650;6.888;2024-03-08T12:44:45;14.35;;;7.68;;
81960;SDS011;71462;50.650;6.888;2024-03-08T12:47:13;19.67;;;11.18;;
81960;SDS011;71462;50.650;6.888;2024-03-08T12:49:42;16.30;;;8.57;;
81960;SDS011;71462;50.650;6.888;2024-03-08T12:52:11;15.82;;;7.50;;
81960;SDS011;71462;50.650;6.888;2024-03-08T12:54:39;21.08;;;9.25;;
81960;SDS011;71462;50.650;6.888;2024-03-08T12:57:06;16.45;;;8.10;;
81960;SDS011;71462;50.650;6.888;2024-03-08T12:59:34;23.08;;;12.93;;
81960;SDS011;71462;50.650;6.888;2024-03-08T13:02:02;16.45;;;8.65;;
81960;SDS011;71462;50.650;6.888;2024-03-08T13:04:32;20.83;;;13.23;;
81960;SDS011;71462;50.650;6.888;2024-03-08T13:07:02;14.75;;;7.13;;
81960;SDS011;71462;50.650;6.888;2024-03-08T13:09:44;14.00;;;8.20;;
81960;SDS011;71462;50.650;6.888;2024-03-08T13:12:29;18.20;;;8.57;;
81960;SDS011;71462;50.650;6.888;2024-03-08T13:15:03;18.10;;;11.02;;
81960;SDS011;71462;50.650;6.888;2024-03-08T13:17:38;19.35;;;12.15;;
81960;SDS011;71462;50.650;6.888;2024-03-08T13:20:07;14.20;;;8.25;;
81960;SDS011;71462;50.650;6.888;2024-03-08T13:22:37;14.68;;;7.50;;
81960;SDS011;71462;50.650;6.888;2024-03-08T13:25:05;22.38;;;10.52;;
81960;SDS011;71462;50.650;6.888;2024-03-08T13:27:45;15.70;;;7.95;;
81960;SDS011;71462;50.650;6.888;2024-03-08T13:30:32;19.52;;;9.98;;
81960;SDS011;71462;50.650;6.888;2024-03-08T13:33:27;19.92;;;11.23;;
81960;SDS011;71462;50.650;6.888;2024-03-08T13:36:10;18.23;;;10.65;;
81960;SDS011;71462;50.650;6.888;2024-03-08T13:38:43;19.10;;;10.13;;
81960;SDS011;71462;50.650;6.888;2024-03-08T13:41:14;15.30;;;9.63;;
81960;SDS011;71462;50.650;6.888;2024-03-08T13:43:45;20.40;;;11.95;;
81960;SDS011;71462;50.650;6.888;2024-03-08T13:46:15;17.48;;;9.52;;
81960;SDS011;71462;50.650;6.888;2024-03-08T13:48:43;17.00;;;8.13;;
81960;SDS011;71462;50.650;6.888;2024-03-08T13:51:11;15.00;;;8.32;;
81960;SDS011;71462;50.650;6.888;2024-03-08T13:53:42;18.83;;;10.90;;
81960;SDS011;71462;50.650;6.888;2024-03-08T13:56:11;26.30;;;15.50;;
81960;SDS011;71462;50.650;6.888;2024-03-08T13:58:40;20.00;;;10.30;;
81960;SDS011;71462;50.650;6.888;2024-03-08T14:01:10;22.15;;;12.75;;
81960;SDS011;71462;50.650;6.888;2024-03-08T14:03:39;18.05;;;10.27;;
81960;SDS011;71462;50.650;6.888;2024-03-08T14:06:08;18.77;;;10.98;;
81960;SDS011;71462;50.650;6.888;2024-03-08T14:08:48;21.35;;;10.00;;
81960;SDS011;71462;50.650;6.888;2024-03-08T14:11:16;15.38;;;8.48;;
81960;SDS011;71462;50.650;6.888;2024-03-08T14:13:46;19.65;;;10.05;;
81960;SDS011;71462;50.650;6.888;2024-03-08T14:16:14;16.85;;;8.68;;
81960;SDS011;71462;50.650;6.888;2024-03-08T14:18:42;20.63;;;12.93;;
81960;SDS011;71462;50.650;6.888;2024-03-08T14:21:10;21.20;;;11.48;;
81960;SDS011;71462;50.650;6.888;2024-03-08T14:23:40;19.80;;;8.50;;
81960;SDS011;71462;50.650;6.888;2024-03-08T14:26:22;20.00;;;8.50;;
81960;SDS011;71462;50.650;6.888;2024-03-08T14:28:52;17.50;;;9.90;;
81960;SDS011;71462;50.650;6.888;2024-03-08T14:31:37;15.98;;;7.68;;
81960;SDS011;71462;50.650;6.888;2024-03-08T14:34:12;15.30;;;8.10;;
81960;SDS011;71462;50.650;6.888;2024-03-08T14:37:40;17.40;;;8.57;;
81960;SDS011;71462;50.650;6.888;2024-03-08T14:40:40;16.75;;;9.00;;
81960;SDS011;71462;50.650;6.888;2024-03-08T14:43:28;17.35;;;9.07;;
81960;SDS011;71462;50.650;6.888;2024-03-08T14:46:04;22.30;;;11.35;;
81960;SDS011;71462;50.650;6.888;2024-03-08T14:49:27;18.42;;;10.55;;
81960;SDS011;71462;50.650;6.888;2024-03-08T14:52:06;17.85;;;9.15;;
81960;SDS011;71462;50.650;6.888;2024-03-08T14:55:14;19.38;;;10.88;;
81960;SDS011;71462;50.650;6.888;2024-03-08T14:58:00;23.02;;;12.40;;
81960;SDS011;71462;50.650;6.888;2024-03-08T15:08:22;18.27;;;9.13;;